Time;durP1;ratioP1;P1;durP2;ratioP2;P2;SDS_P1;SDS_P2;PMS_P1;PMS_P2;Temp;Humidity;BMP_temperature;BMP_pressure;BME280_temperature;BME280_humidity;BME280_pressure;Samples;Min_cycle;Max_cycle;Signal;HPM_P1;HPM_P2
2023/12/29 00:01:42;;;;;;;0.52;0.52;;;11.00;99.90;;;10.98;100.00;100593.31;5230727;28;20048;-48
2023/12/29 00:04:16;;;;;;;2.65;0.70;;;10.90;99.90;;;10.97;100.00;100588.94;5237879;28;20045;-48
2023/12/29 00:06:48;;;;;;;2.08;0.80;;;10.90;99.90;;;10.94;100.00;100586.22;5233899;28;20477;-48
2023/12/29 00:09:21;;;;;;;0.80;0.80;;;10.90;99.90;;;10.94;100.00;100587.94;5231274;28;20051;-48
2023/12/29 00:11:54;;;;;;;0.70;0.45;;;10.90;99.90;;;10.93;100.00;100584.47;5235443;28;20056;-48
2023/12/29 00:14:27;;;;;;;2.40;0.60;;;10.90;99.90;;;10.95;100.00;100587.09;5237638;28;20080;-48
2023/12/29 00:17:00;;;;;;;1.95;0.60;;;10.90;99.90;;;10.96;100.00;100581.06;5239196;28;20411;-48
2023/12/29 00:19:34;;;;;;;0.70;0.70;;;10.90;99.90;;;10.96;100.00;100576.75;5238988;28;20055;-48
2023/12/29 00:22:06;;;;;;;2.33;0.73;;;10.90;99.90;;;10.98;100.00;100584.59;5232557;28;20056;-48
2023/12/29 00:24:39;;;;;;;3.30;0.57;;;10.90;99.90;;;11.02;100.00;100582.13;5250725;28;20040;-48
2023/12/29 00:27:11;;;;;;;0.50;0.50;;;10.90;99.90;;;11.02;100.00;100579.53;5243266;28;20052;-48
2023/12/29 00:29:44;;;;;;;3.83;0.80;;;11.00;99.90;;;11.00;100.00;100581.19;5248332;28;20082;-48
2023/12/29 00:32:17;;;;;;;0.65;0.63;;;10.90;99.90;;;11.01;100.00;100577.72;5242959;28;20132;-48
2023/12/29 00:34:51;;;;;;;0.80;0.68;;;10.90;99.90;;;11.00;100.00;100572.47;5237744;28;20460;-48
2023/12/29 00:37:23;;;;;;;1.48;0.90;;;10.90;99.90;;;11.00;100.00;100568.16;5238370;28;20143;-49
2023/12/29 00:39:56;;;;;;;1.02;0.63;;;11.00;99.90;;;11.03;100.00;100564.75;5241680;28;20086;-48
2023/12/29 00:42:28;;;;;;;3.25;0.75;;;11.00;99.90;;;10.99;100.00;100555.94;5232671;28;20079;-48
2023/12/29 00:45:01;;;;;;;2.08;0.60;;;11.00;99.90;;;11.01;100.00;100562.09;5233144;28;20070;-48
2023/12/29 00:47:34;;;;;;;1.27;0.70;;;10.90;99.90;;;11.01;100.00;100562.09;5236472;28;20121;-48
2023/12/29 00:50:09;;;;;;;2.55;0.80;;;11.00;99.90;;;11.01;100.00;100556.88;5237757;28;20040;-48
2023/12/29 00:52:41;;;;;;;1.13;0.75;;;11.00;99.90;;;11.03;100.00;100542.16;5235323;28;20067;-48
2023/12/29 00:55:14;;;;;;;3.25;0.68;;;11.00;99.90;;;11.04;100.00;100556.09;5238192;28;20044;-49
2023/12/29 00:57:48;;;;;;;1.60;0.75;;;11.00;99.90;;;11.06;100.00;100551.78;5239446;28;20442;-49
2023/12/29 01:00:21;;;;;;;2.72;0.90;;;11.00;99.90;;;11.04;100.00;100549.16;5240531;28;20059;-50
2023/12/29 01:02:53;;;;;;;2.90;0.85;;;11.00;99.90;;;11.10;100.00;100541.50;5247218;28;20048;-48
2023/12/29 01:05:28;;;;;;;3.15;0.68;;;11.00;99.90;;;11.08;100.00;100524.03;5229863;28;20048;-49
2023/12/29 01:08:00;;;;;;;1.98;0.85;;;11.00;99.90;;;11.06;100.00;100531.81;5235818;28;20056;-47
2023/12/29 01:10:33;;;;;;;2.10;0.93;;;11.00;99.90;;;11.04;100.00;100524.78;5242929;28;20048;-49
2023/12/29 01:13:05;;;;;;;1.35;0.70;;;11.00;99.90;;;11.04;100.00;100515.25;5234525;28;20076;-49
2023/12/29 01:15:40;;;;;;;1.73;0.70;;;11.00;99.90;;;11.06;100.00;100523.97;5238235;28;20047;-48
2023/12/29 01:18:14;;;;;;;1.38;0.43;;;11.00;99.90;;;11.08;100.00;100530.16;5237630;28;20040;-48
2023/12/29 01:20:48;;;;;;;2.05;0.70;;;11.00;99.90;;;11.07;100.00;100525.75;5231604;28;20048;-49
2023/12/29 01:23:20;;;;;;;2.40;0.77;;;11.00;99.90;;;11.10;100.00;100520.63;5233077;28;20536;-47
2023/12/29 01:25:53;;;;;;;1.58;0.70;;;11.00;99.90;;;11.10;100.00;100518.03;5243384;28;20383;-49
2023/12/29 01:28:26;;;;;;;1.73;0.68;;;11.00;99.90;;;11.14;100.00;100522.47;5231608;28;20125;-49
2023/12/29 01:30:58;;;;;;;1.45;0.77;;;11.00;99.90;;;11.13;100.00;100519.81;5237948;28;20135;-48
2023/12/29 01:33:31;;;;;;;0.45;0.45;;;11.00;99.90;;;11.12;100.00;100523.28;5242759;28;20048;-48
2023/12/29 01:36:05;;;;;;;1.02;0.70;;;11.00;99.90;;;11.12;100.00;100510.22;5238914;28;20052;-48
2023/12/29 01:38:39;;;;;;;2.70;0.75;;;11.10;99.90;;;11.11;100.00;100511.97;5245098;28;20036;-49
2023/12/29 01:41:13;;;;;;;1.20;0.75;;;11.00;99.90;;;11.12;100.00;100511.13;5238963;28;20474;-48
2023/12/29 01:44:21;;;;;;;7.32;0.90;;;11.00;99.90;;;11.12;100.00;100507.63;5236750;28;20571;-48
2023/12/29 01:46:58;;;;;;;4.75;0.70;;;11.00;99.90;;;11.16;100.00;100503.38;5249262;28;20185;-48
2023/12/29 01:49:31;;;;;;;1.90;1.20;;;11.10;99.90;;;11.15;100.00;100502.50;5232515;28;20048;-49
2023/12/29 01:52:06;;;;;;;2.92;0.85;;;11.10;99.90;;;11.17;100.00;100511.25;5240721;28;20070;-49
2023/12/29 01:54:40;;;;;;;2.67;1.17;;;11.10;99.90;;;11.21;100.00;100509.59;5232337;28;20044;-48
2023/12/29 01:57:13;;;;;;;2.53;0.80;;;11.10;99.90;;;11.21;100.00;100512.19;5236914;28;20567;-48
2023/12/29 01:59:48;;;;;;;0.70;0.60;;;11.10;99.90;;;11.22;100.00;100507.06;5231749;28;20469;-47
2023/12/29 02:02:20;;;;;;;3.58;1.00;;;11.10;99.90;;;11.22;100.00;100504.44;5244622;28;20044;-48
2023/12/29 02:04:53;;;;;;;2.35;1.00;;;11.10;99.90;;;11.24;100.00;100501.88;5237688;28;20039;-49
2023/12/29 02:07:30;;;;;;;1.58;0.60;;;11.10;99.90;;;11.24;100.00;100501.88;5227192;28;20051;-49
2023/12/29 02:10:02;;;;;;;2.35;0.70;;;11.20;99.90;;;11.28;100.00;100498.47;5239278;28;20052;-50
2023/12/29 02:12:37;;;;;;;2.75;0.70;;;11.20;99.90;;;11.27;100.00;100496.72;5231686;28;20063;-49
2023/12/29 02:15:10;;;;;;;1.88;0.70;;;11.20;99.90;;;11.28;100.00;100503.69;5244106;28;20050;-47
2023/12/29 02:17:49;;;;;;;1.42;0.80;;;11.20;99.90;;;11.31;100.00;100504.69;5232165;28;20048;-48
2023/12/29 02:20:22;;;;;;;4.03;0.95;;;11.20;99.90;;;11.35;100.00;100492.63;5234014;28;20047;-49
2023/12/29 02:22:56;;;;;;;4.22;0.77;;;11.20;99.90;;;11.33;100.00;100481.22;5233065;28;20065;-48
2023/12/29 02:25:30;;;;;;;2.33;0.70;;;11.30;99.90;;;11.33;100.00;100492.56;5236642;28;20044;-48
2023/12/29 02:28:11;;;;;;;2.67;0.40;;;11.20;99.90;;;11.37;100.00;100480.47;5245888;28;20044;-49
2023/12/29 02:30:52;;;;;;;3.42;0.73;;;11.20;99.90;;;11.34;100.00;100486.47;5240153;28;20504;-49
2023/12/29 02:33:26;;;;;;;2.58;1.00;;;11.30;99.90;;;11.39;100.00;100482.28;5246938;28;20055;-48
2023/12/29 02:36:02;;;;;;;1.85;0.63;;;11.30;99.90;;;11.38;100.00;100469.19;5251713;28;20043;-48
2023/12/29 02:38:35;;;;;;;2.88;0.68;;;11.30;99.90;;;11.42;100.00;100473.66;5233913;28;20052;-48
2023/12/29 02:41:09;;;;;;;1.23;0.52;;;11.30;99.90;;;11.50;100.00;100464.31;5230962;28;20047;-48
2023/12/29 02:43:42;;;;;;;2.05;0.57;;;11.30;99.90;;;11.52;100.00;100454.78;5247550;28;20040;-48
2023/12/29 02:46:15;;;;;;;2.78;0.90;;;11.40;99.90;;;11.49;100.00;100459.94;5234231;28;20044;-48
2023/12/29 02:48:47;;;;;;;4.20;0.93;;;11.40;99.90;;;11.47;100.00;100464.19;5232610;28;20048;-49
2023/12/29 02:51:20;;;;;;;4.30;0.70;;;11.40;99.90;;;11.41;100.00;100456.25;5232039;28;20044;-48
2023/12/29 02:53:52;;;;;;;0.88;0.50;;;11.40;99.90;;;11.44;100.00;100464.13;5237343;28;20616;-48
2023/12/29 02:56:26;;;;;;;1.58;0.90;;;11.30;99.90;;;11.43;100.00;100467.59;5231350;28;20053;-48
2023/12/29 02:58:58;;;;;;;2.45;0.80;;;11.40;99.90;;;11.43;100.00;100457.16;5230213;28;20060;-49
2023/12/29 03:01:31;;;;;;;1.92;0.90;;;11.40;99.90;;;11.40;100.00;100467.50;5233043;28;20917;-49
2023/12/29 03:04:04;;;;;;;0.57;0.43;;;11.40;99.90;;;11.44;100.00;100452.81;5241011;28;20045;-49
2023/12/29 03:06:36;;;;;;;1.58;0.70;;;11.30;99.90;;;11.51;100.00;100466.06;5236084;28;20071;-48
2023/12/29 03:09:09;;;;;;;1.92;0.82;;;11.40;99.90;;;11.49;100.00;100449.50;5239035;28;20074;-49
2023/12/29 03:11:43;;;;;;;0.60;0.60;;;11.40;99.90;;;11.45;100.00;100460.69;5241272;28;20040;-49
2023/12/29 03:14:16;;;;;;;1.63;0.68;;;11.30;99.90;;;11.45;100.00;100454.56;5251080;28;20139;-48
2023/12/29 03:16:49;;;;;;;2.13;0.60;;;11.40;99.90;;;11.45;100.00;100460.69;5236638;28;20071;-49
2023/12/29 03:19:22;;;;;;;6.13;1.00;;;11.30;99.90;;;11.48;100.00;100462.50;5236185;28;20135;-48
2023/12/29 03:21:54;;;;;;;2.83;0.77;;;11.40;99.90;;;11.47;100.00;100458.97;5231757;28;20044;-48
2023/12/29 03:24:27;;;;;;;2.33;0.65;;;11.40;99.90;;;11.44;100.00;100464.13;5237972;28;20600;-48
2023/12/29 03:27:01;;;;;;;0.93;0.68;;;11.30;99.90;;;11.41;100.00;100459.72;5241217;28;20075;-49
2023/12/29 03:29:33;;;;;;;3.88;0.88;;;11.30;99.90;;;11.44;100.00;100453.69;5237970;28;20037;-49
2023/12/29 03:32:07;;;;;;;1.10;0.63;;;11.40;99.90;;;11.41;100.00;100464.97;5245619;28;20040;-48
2023/12/29 03:34:39;;;;;;;2.33;0.77;;;11.40;99.90;;;11.39;100.00;100466.63;5236662;28;20051;-49
2023/12/29 03:37:12;;;;;;;0.50;0.43;;;11.30;99.90;;;11.38;100.00;100464.84;5230277;28;20048;-49
2023/12/29 03:39:45;;;;;;;2.20;0.70;;;11.30;99.90;;;11.41;100.00;100456.25;5232377;28;20502;-48
2023/12/29 03:42:19;;;;;;;4.43;0.60;;;11.30;99.90;;;11.38;100.00;100451.81;5229882;28;20050;-48
2023/12/29 03:44:51;;;;;;;1.63;0.75;;;11.30;99.90;;;11.37;100.00;100452.66;5240580;28;20080;-48
2023/12/29 03:47:24;;;;;;;4.03;0.95;;;11.30;99.90;;;11.37;100.00;100446.56;5234180;28;20069;-49
2023/12/29 03:49:56;;;;;;;3.97;0.65;;;11.30;99.90;;;11.37;100.00;100462.22;5228795;28;20060;-48
2023/12/29 03:52:29;;;;;;;1.98;0.57;;;11.30;99.90;;;11.38;100.00;100456.16;5229012;28;20131;-48
2023/12/29 03:55:01;;;;;;;5.55;0.70;;;11.30;99.90;;;11.38;100.00;100453.53;5237335;28;20072;-49
2023/12/29 03:57:35;;;;;;;0.68;0.50;;;11.30;99.90;;;11.38;100.00;100456.16;5232170;28;20044;-50
2023/12/29 04:00:13;;;;;;;2.35;0.68;;;11.30;99.90;;;11.37;100.00;100454.38;5236770;28;20143;-50
2023/12/29 04:02:46;;;;;;;4.60;0.70;;;11.30;99.90;;;11.38;100.00;100451.81;5240175;28;20106;-48
2023/12/29 04:05:18;;;;;;;0.70;0.50;;;11.30;99.90;;;11.42;100.00;100452.78;5252888;28;20040;-47
2023/12/29 04:07:51;;;;;;;1.85;0.50;;;11.30;99.90;;;11.44;100.00;100443.25;5237858;28;20053;-48
2023/12/29 04:10:23;;;;;;;3.58;0.50;;;11.40;99.90;;;11.48;100.00;100429.47;5235834;28;20406;-47
2023/12/29 04:12:57;;;;;;;3.45;0.70;;;11.40;99.90;;;11.47;100.00;100439.84;5242354;28;20111;-49
2023/12/29 04:15:30;;;;;;;2.35;0.65;;;11.40;99.90;;;11.46;100.00;100441.56;5250726;28;20044;-48
2023/12/29 04:18:02;;;;;;;4.00;0.60;;;11.40;99.90;;;11.46;100.00;100438.94;5254803;28;20051;-49
2023/12/29 04:20:35;;;;;;;4.43;0.55;;;11.30;99.90;;;11.47;100.00;100432.00;5243177;28;20139;-48
2023/12/29 04:23:09;;;;;;;0.70;0.50;;;11.40;99.90;;;11.44;100.00;100426.72;5237783;28;20625;-49
2023/12/29 04:25:41;;;;;;;0.88;0.50;;;11.40;99.90;;;11.47;100.00;100432.00;5234494;28;20068;-48
2023/12/29 04:28:15;;;;;;;0.65;0.65;;;11.40;99.90;;;11.44;100.00;100426.72;5236896;28;20128;-49
2023/12/29 04:30:48;;;;;;;3.30;0.82;;;11.30;99.90;;;11.45;100.00;100426.75;5241969;28;20147;-48
2023/12/29 04:33:20;;;;;;;2.00;0.43;;;11.40;99.90;;;11.44;100.00;100422.38;5240217;28;20048;-49
2023/12/29 04:35:56;;;;;;;1.38;0.68;;;11.40;99.90;;;11.43;100.00;100433.66;5242327;28;20058;-49
2023/12/29 04:38:29;;;;;;;3.45;0.65;;;11.30;99.90;;;11.43;100.00;100427.56;5237317;28;20484;-49
2023/12/29 04:41:01;;;;;;;1.73;0.60;;;11.40;99.90;;;11.42;100.00;100424.06;5244351;28;20052;-48
2023/12/29 04:43:35;;;;;;;4.47;0.60;;;11.30;99.90;;;11.45;100.00;100424.13;5230905;28;20048;-49
2023/12/29 04:46:08;;;;;;;2.47;0.70;;;11.40;99.90;;;11.48;100.00;100411.19;5247860;28;20135;-48
2023/12/29 04:48:40;;;;;;;1.20;0.80;;;11.40;99.90;;;11.44;100.00;100422.38;5252503;28;20055;-48
2023/12/29 04:51:13;;;;;;;2.03;0.50;;;11.30;99.90;;;11.43;100.00;100417.13;5241231;28;20072;-49
2023/12/29 04:53:46;;;;;;;1.65;0.57;;;11.40;99.90;;;11.43;100.00;100425.84;5238688;28;20058;-49
2023/12/29 04:56:18;;;;;;;3.38;0.70;;;11.40;99.90;;;11.42;100.00;100418.84;5233179;28;20139;-48
2023/12/29 04:58:53;;;;;;;2.20;0.50;;;11.40;99.90;;;11.44;100.00;100422.38;5233401;28;20056;-48
2023/12/29 05:01:25;;;;;;;1.42;0.52;;;11.30;99.90;;;11.43;100.00;100424.97;5232978;28;20134;-48
2023/12/29 05:03:58;;;;;;;0.77;0.50;;;11.30;99.90;;;11.45;100.00;100431.97;5238233;28;20260;-49
2023/12/29 05:06:30;;;;;;;2.53;0.50;;;11.40;99.90;;;11.43;100.00;100433.66;5239955;28;20048;-49
2023/12/29 05:09:03;;;;;;;2.33;0.50;;;11.40;99.90;;;11.42;100.00;100439.72;5235173;28;20139;-49
2023/12/29 05:11:36;;;;;;;3.15;0.63;;;11.30;99.90;;;11.43;100.00;100440.63;5238550;28;20463;-49
2023/12/29 05:14:10;;;;;;;1.27;0.60;;;11.40;99.90;;;11.44;100.00;100447.59;5248675;28;20071;-49
2023/12/29 05:16:43;;;;;;;0.57;0.57;;;11.30;99.90;;;11.42;100.00;100450.19;5240048;28;20514;-49
2023/12/29 05:19:15;;;;;;;3.85;0.95;;;11.30;99.90;;;11.44;100.00;100463.25;5249141;28;20076;-48
2023/12/29 05:21:50;;;;;;;3.47;0.70;;;11.40;99.90;;;11.42;100.00;100473.66;5240112;28;20063;-49
2023/12/29 05:24:23;;;;;;;0.47;0.47;;;11.30;99.90;;;11.40;100.00;100457.06;5232573;28;20048;-48
2023/12/29 05:26:55;;;;;;;2.08;0.70;;;11.30;99.90;;;11.40;100.00;100452.72;5239245;28;20074;-48
2023/12/29 05:29:29;;;;;;;1.52;0.80;;;11.30;99.90;;;11.39;100.00;100450.97;5248471;28;20064;-49
2023/12/29 05:32:02;;;;;;;0.95;0.50;;;11.30;99.90;;;11.39;100.00;100450.97;5252238;28;20040;-49
2023/12/29 05:34:35;;;;;;;2.40;0.60;;;11.30;99.90;;;11.38;100.00;100446.59;5238650;28;20048;-49
2023/12/29 05:37:07;;;;;;;6.18;0.70;;;11.30;99.90;;;11.38;100.00;100450.94;5230687;28;20055;-49
2023/12/29 05:39:43;;;;;;;1.08;0.50;;;11.30;99.90;;;11.35;100.00;100449.13;5250698;28;20608;-48
2023/12/29 05:42:15;;;;;;;2.17;0.60;;;11.30;99.90;;;11.37;100.00;100454.38;5241046;28;20240;-48
2023/12/29 05:44:49;;;;;;;0.68;0.40;;;11.30;99.90;;;11.36;100.00;100444.78;5235834;28;20067;-48
2023/12/29 05:47:22;;;;;;;3.78;0.70;;;11.30;99.90;;;11.40;100.00;100449.22;5235700;28;20094;-48
2023/12/29 05:49:55;;;;;;;2.65;0.70;;;11.30;99.90;;;11.37;100.00;100447.44;5242941;28;20093;-48
2023/12/29 05:52:28;;;;;;;1.55;0.52;;;11.30;99.90;;;11.36;100.00;100450.91;5230295;28;20068;-49
2023/12/29 05:55:03;;;;;;;1.60;0.82;;;11.30;99.90;;;11.35;100.00;100456.97;5233760;28;20497;-48
2023/12/29 05:57:36;;;;;;;2.30;0.73;;;11.30;99.90;;;11.36;100.00;100460.44;5235137;28;20106;-49
2023/12/29 06:00:14;;;;;;;4.03;0.60;;;11.30;99.90;;;11.34;100.00;100456.91;5232454;28;20048;-48
2023/12/29 06:02:46;;;;;;;0.40;0.40;;;11.30;99.90;;;11.35;100.00;100459.56;5226800;28;20075;-49
2023/12/29 06:05:19;;;;;;;0.50;0.50;;;11.20;99.90;;;11.35;100.00;100454.34;5236746;28;20068;-49
2023/12/29 06:07:52;;;;;;;1.98;0.90;;;11.30;99.90;;;11.38;100.00;100443.09;5236570;28;20506;-48
2023/12/29 06:10:24;;;;;;;3.28;0.85;;;11.30;99.90;;;11.36;100.00;100450.00;5233310;28;20044;-49
2023/12/29 06:12:57;;;;;;;0.68;0.55;;;11.30;99.90;;;11.35;100.00;100453.47;5232114;28;20047;-47
2023/12/29 06:15:31;;;;;;;4.13;0.52;;;11.30;99.90;;;11.37;100.00;100451.78;5227357;28;20126;-47
2023/12/29 06:18:05;;;;;;;1.45;0.50;;;11.30;99.90;;;11.33;100.00;100463.84;5238463;28;20052;-49
2023/12/29 06:20:38;;;;;;;1.30;0.57;;;11.20;99.90;;;11.36;100.00;100460.44;5240502;28;20052;-49
2023/12/29 06:23:10;;;;;;;2.28;0.70;;;11.30;99.90;;;11.34;100.00;100468.22;5230976;28;20044;-49
2023/12/29 06:25:43;;;;;;;0.60;0.60;;;11.20;99.90;;;11.32;100.00;100461.19;5242200;28;20040;-49
2023/12/29 06:28:16;;;;;;;1.35;0.55;;;11.30;99.90;;;11.30;100.00;100457.69;5232666;28;20051;-48
2023/12/29 06:30:50;;;;;;;1.42;0.57;;;11.20;99.90;;;11.31;100.00;100462.06;5235940;28;20053;-48
2023/12/29 06:33:22;;;;;;;3.40;0.73;;;11.30;99.90;;;11.29;100.00;100454.19;5238984;28;20049;-48
2023/12/29 06:35:55;;;;;;;0.50;0.50;;;11.20;99.90;;;11.27;100.00;100453.25;5240632;28;20075;-48
2023/12/29 06:38:28;;;;;;;0.90;0.52;;;11.20;99.90;;;11.25;100.00;100457.56;5236644;28;20502;-48
2023/12/29 06:41:01;;;;;;;2.17;0.63;;;11.20;99.90;;;11.25;100.00;100460.16;5235122;28;20105;-49
2023/12/29 06:43:33;;;;;;;1.85;0.75;;;11.20;99.90;;;11.24;100.00;100449.69;5233156;28;20044;-48
2023/12/29 06:46:08;;;;;;;0.47;0.47;;;11.20;99.90;;;11.23;100.00;100447.94;5237453;28;20052;-49
2023/12/29 06:48:41;;;;;;;1.00;0.55;;;11.20;99.90;;;11.24;100.00;100449.69;5234679;28;20056;-49
2023/12/29 06:51:18;;;;;;;1.40;0.52;;;11.20;99.90;;;11.24;100.00;100449.69;5232556;28;20036;-50
2023/12/29 06:53:51;;;;;;;1.65;0.80;;;11.20;99.90;;;11.25;100.00;100435.78;5241175;28;20040;-48
2023/12/29 06:56:24;;;;;;;0.85;0.40;;;11.20;99.90;;;11.25;100.00;100441.88;5227441;28;20049;-48
2023/12/29 06:58:56;;;;;;;1.73;0.80;;;11.20;99.90;;;11.25;100.00;100431.47;5233080;28;20075;-49
2023/12/29 07:01:30;;;;;;;0.60;0.57;;;11.20;99.90;;;11.26;100.00;100443.66;5235843;28;20138;-48
2023/12/29 07:04:04;;;;;;;1.02;0.55;;;11.20;99.90;;;11.25;100.00;100431.47;5228481;28;20044;-48
2023/12/29 07:06:36;;;;;;;2.90;0.70;;;11.20;99.90;;;11.26;100.00;100427.13;5241273;28;20176;-48
2023/12/29 07:09:09;;;;;;;0.70;0.60;;;11.20;99.90;;;11.26;100.00;100416.69;5237797;28;20052;-49
2023/12/29 07:11:42;;;;;;;7.10;0.88;;;11.20;99.90;;;11.27;100.00;100426.28;5230582;28;20113;-48
2023/12/29 07:14:14;;;;;;;1.55;0.68;;;11.20;99.90;;;11.27;100.00;100427.16;5237067;28;20045;-48
2023/12/29 07:16:48;;;;;;;2.40;0.73;;;11.20;99.90;;;11.29;100.00;100428.09;5226733;28;20048;-48
2023/12/29 07:19:21;;;;;;;1.88;0.65;;;11.20;99.90;;;11.28;100.00;100426.34;5231186;28;20519;-47
2023/12/29 07:21:54;;;;;;;2.67;0.95;;;11.20;99.90;;;11.30;100.00;100415.94;5231720;28;20080;-48
2023/12/29 07:24:26;;;;;;;12.32;3.40;;;11.20;99.90;;;11.30;100.00;100418.53;5235690;28;20052;-48
2023/12/29 07:26:59;;;;;;;21.58;6.70;;;11.20;99.90;;;11.30;100.00;100408.09;5239103;28;20048;-49
2023/12/29 07:29:32;;;;;;;16.98;5.65;;;11.20;99.90;;;11.29;100.00;100411.56;5229682;28;20058;-49
2023/12/29 07:32:07;;;;;;;4.13;1.80;;;11.20;99.90;;;11.30;100.00;100405.50;5235161;28;20059;-48
2023/12/29 07:34:40;;;;;;;2.45;1.25;;;11.30;99.90;;;11.29;100.00;100406.34;5239707;28;20514;-48
2023/12/29 07:37:13;;;;;;;3.10;1.20;;;11.20;99.90;;;11.30;100.00;100408.97;5243587;28;20052;-51
2023/12/29 07:39:47;;;;;;;1.73;0.60;;;11.20;99.90;;;11.33;100.00;100410.78;5238923;28;20098;-48
2023/12/29 07:42:20;;;;;;;4.32;0.70;;;11.30;99.90;;;11.34;100.00;100409.94;5245253;28;20044;-48
2023/12/29 07:44:55;;;;;;;2.83;0.60;;;11.30;99.90;;;11.33;100.00;100413.38;5245660;28;20170;-48
2023/12/29 07:47:29;;;;;;;1.27;0.40;;;11.30;99.90;;;11.34;100.00;100412.53;5234384;28;20497;-49
2023/12/29 07:50:02;;;;;;;2.15;0.70;;;11.20;99.90;;;11.36;100.00;100408.25;5237031;28;20513;-48
2023/12/29 07:52:35;;;;;;;0.50;0.50;;;11.30;99.90;;;11.34;100.00;100407.31;5243692;28;20049;-48
2023/12/29 07:55:08;;;;;;;1.60;0.63;;;11.30;99.90;;;11.34;100.00;100409.94;5246936;28;20052;-48
2023/12/29 07:57:40;;;;;;;2.00;0.50;;;11.20;99.90;;;11.38;100.00;100406.56;5236259;28;20115;-50
2023/12/29 08:00:15;;;;;;;0.60;0.55;;;11.30;99.90;;;11.37;100.00;100400.47;5241912;28;20088;-48
2023/12/29 08:02:48;;;;;;;5.78;0.80;;;11.30;99.90;;;11.36;100.00;100403.03;5251106;28;20060;-49
2023/12/29 08:05:21;;;;;;;0.73;0.60;;;11.30;99.90;;;11.41;100.00;100396.22;5232632;28;20078;-49
2023/12/29 08:07:54;;;;;;;0.55;0.50;;;11.30;99.90;;;11.39;100.00;100396.16;5231060;28;20064;-48
2023/12/29 08:10:27;;;;;;;4.35;0.80;;;11.30;99.90;;;11.40;100.00;100399.66;5235723;28;20148;-48
2023/12/29 08:12:59;;;;;;;2.47;0.60;;;11.30;99.90;;;11.40;100.00;100402.25;5248388;28;20530;-49
2023/12/29 08:15:32;;;;;;;0.65;0.52;;;11.30;99.90;;;11.42;100.00;100403.19;5231508;28;20056;-49
2023/12/29 08:18:07;;;;;;;2.13;0.60;;;11.30;99.90;;;11.43;100.00;100404.97;5238069;28;20469;-48
2023/12/29 08:20:39;;;;;;;1.95;0.60;;;11.30;99.90;;;11.40;100.00;100405.75;5237230;28;20418;-48
2023/12/29 08:23:12;;;;;;;2.78;0.65;;;11.30;99.90;;;11.38;100.00;100397.00;5238460;28;20127;-48
2023/12/29 08:25:46;;;;;;;0.98;0.73;;;11.30;99.90;;;11.44;100.00;100401.50;5233953;28;20052;-48
2023/12/29 08:28:18;;;;;;;0.40;0.35;;;11.40;99.90;;;11.41;100.00;100404.94;5243558;28;20056;-48
2023/12/29 08:30:51;;;;;;;0.60;0.60;;;11.40;99.90;;;11.38;100.00;100398.72;5240546;28;20090;-49
2023/12/29 08:33:25;;;;;;;0.85;0.38;;;11.30;99.90;;;11.35;100.00;100406.50;5243247;28;20109;-49
2023/12/29 08:36:00;;;;;;;0.98;0.43;;;11.30;99.90;;;11.35;100.00;100417.81;5240901;28;20044;-49
2023/12/29 08:38:33;;;;;;;0.88;0.80;;;11.30;99.90;;;11.36;100.00;100418.69;5237233;28;20048;-48
2023/12/29 08:41:05;;;;;;;2.80;0.40;;;11.30;99.90;;;11.34;100.00;100434.28;5240566;28;20060;-48
2023/12/29 08:43:38;;;;;;;2.45;0.65;;;11.30;99.90;;;11.32;100.00;100435.09;5241937;28;20045;-48
2023/12/29 08:46:10;;;;;;;0.52;0.40;;;11.30;99.90;;;11.30;100.00;100435.06;5239914;28;20542;-48
2023/12/29 08:48:44;;;;;;;1.83;0.73;;;11.30;99.90;;;11.29;100.00;100429.81;5236641;28;20049;-48
2023/12/29 08:51:16;;;;;;;0.60;0.60;;;11.20;99.90;;;11.28;100.00;100425.44;5240168;28;20419;-49
2023/12/29 08:53:49;;;;;;;0.45;0.30;;;11.20;99.90;;;11.27;100.00;100434.09;5237882;28;20044;-48
2023/12/29 08:56:21;;;;;;;1.75;0.40;;;11.20;99.90;;;11.25;100.00;100435.78;5241313;28;20518;-48
2023/12/29 08:58:53;;;;;;;0.80;0.50;;;11.20;99.90;;;11.36;100.00;100426.53;5233875;28;20047;-48
2023/12/29 09:01:26;;;;;;;0.63;0.35;;;11.30;99.90;;;11.46;100.00;100425.91;5239899;28;20048;-48
2023/12/29 09:04:00;;;;;;;2.90;0.70;;;11.40;99.90;;;11.45;100.00;100426.75;5229538;28;20403;-48
2023/12/29 09:06:32;;;;;;;1.00;0.75;;;11.40;99.90;;;11.43;100.00;100423.22;5241321;28;20041;-49
2023/12/29 09:09:05;;;;;;;1.70;0.65;;;11.40;99.90;;;11.44;100.00;100432.81;5242820;28;20442;-50
2023/12/29 09:11:37;;;;;;;1.00;0.63;;;11.40;99.90;;;11.44;100.00;100421.50;5230183;28;20055;-49
2023/12/29 09:14:09;;;;;;;3.63;0.60;;;11.30;99.90;;;11.44;100.00;100419.78;5241988;28;20036;-50
2023/12/29 09:16:46;;;;;;;1.27;0.75;;;11.30;99.90;;;11.44;100.00;100427.59;5231780;28;20059;-50
2023/12/29 09:19:20;;;;;;;0.50;0.50;;;11.40;99.90;;;11.44;100.00;100425.00;5240676;28;20573;-49
2023/12/29 09:21:52;;;;;;;1.48;0.52;;;11.30;99.90;;;11.44;100.00;100430.22;5240639;28;20056;-51
2023/12/29 09:24:24;;;;;;;0.88;0.38;;;11.40;99.90;;;11.45;100.00;100424.13;5237263;28;20037;-50
2023/12/29 09:26:57;;;;;;;3.80;0.47;;;11.40;99.90;;;11.45;100.00;100437.19;5238078;28;20040;-49
2023/12/29 09:29:29;;;;;;;2.67;0.68;;;11.40;99.90;;;11.49;100.00;100446.00;5240922;28;20044;-50
2023/12/29 09:32:02;;;;;;;1.17;0.35;;;11.30;99.90;;;11.52;100.00;100431.28;5238749;28;20048;-50
2023/12/29 09:34:35;;;;;;;0.73;0.35;;;11.40;99.90;;;11.50;100.00;100425.16;5234469;28;20641;-49
2023/12/29 09:37:08;;;;;;;1.23;0.50;;;11.40;99.90;;;11.49;100.00;100431.22;5229855;28;20037;-50
2023/12/29 09:39:40;;;;;;;2.58;0.80;;;11.40;99.90;;;11.50;100.00;100439.94;5242415;28;20618;-48
2023/12/29 09:42:22;;;;;;;0.57;0.40;;;11.40;99.90;;;11.50;100.00;100442.53;5244164;28;20071;-48
2023/12/29 09:44:55;;;;;;;2.15;0.43;;;11.40;99.90;;;11.53;100.00;100443.47;5237036;28;20502;-49
2023/12/29 09:47:28;;;;;;;0.60;0.50;;;11.40;99.90;;;11.58;100.00;100443.59;5240110;28;20044;-48
2023/12/29 09:50:03;;;;;;;0.75;0.30;;;11.50;99.90;;;11.58;100.00;100448.81;5241132;28;20049;-50
2023/12/29 09:52:37;;;;;;;0.75;0.30;;;11.50;99.90;;;11.54;100.00;100450.50;5233990;28;20056;-49
2023/12/29 09:55:11;;;;;;;1.25;0.22;;;11.40;99.90;;;11.50;100.00;100448.63;5235187;28;20060;-48
2023/12/29 09:57:44;;;;;;;1.52;0.30;;;11.40;99.90;;;11.51;100.00;100468.66;5232988;28;20064;-49
2023/12/29 10:00:20;;;;;;;0.52;0.30;;;11.40;99.90;;;11.51;100.00;100466.06;5242265;28;20066;-50
2023/12/29 10:02:54;;;;;;;0.90;0.40;;;11.40;99.90;;;11.53;100.00;100468.69;5237027;28;20456;-49
2023/12/29 10:05:27;;;;;;;0.85;0.50;;;11.40;99.90;;;11.59;100.00;100469.75;5246873;28;20048;-49
2023/12/29 10:08:04;;;;;;;0.38;0.32;;;11.50;99.90;;;11.59;100.00;100459.31;5237832;28;20055;-50
2023/12/29 10:10:38;;;;;;;0.20;0.20;;;11.50;99.90;;;11.59;100.00;100469.75;5242606;28;20135;-49
2023/12/29 10:13:12;;;;;;;0.30;0.30;;;11.50;99.90;;;11.57;100.00;100457.50;5240258;28;20072;-49
2023/12/29 10:15:51;;;;;;;0.30;0.28;;;11.50;99.90;;;11.54;100.00;100455.72;5240712;28;20479;-49
2023/12/29 10:18:33;;;;;;;0.43;0.22;;;11.50;99.90;;;11.52;100.00;100456.50;5234939;28;20131;-49
2023/12/29 10:21:18;;;;;;;0.30;0.30;;;11.40;99.90;;;11.55;100.00;100454.00;5230073;28;20407;-51
2023/12/29 10:23:58;;;;;;;1.08;0.75;;;11.40;99.90;;;11.57;100.00;100444.47;5229188;28;20489;-48
2023/12/29 10:26:31;;;;;;;1.27;0.40;;;11.50;99.90;;;11.62;100.00;100443.72;5232705;28;20075;-49
2023/12/29 10:29:03;;;;;;;0.30;0.30;;;11.50;99.90;;;11.66;100.00;100442.06;5241681;28;20648;-50
2023/12/29 10:31:35;;;;;;;0.30;0.30;;;11.50;99.90;;;11.68;100.00;100443.88;5245358;28;20105;-50